sensor_id;sensor_type;location;lat;lon;timestamp;P1;durP1;ratioP1;P2;durP2;ratioP2
2362;SDS011;64265;51.664;7.626;2023-03-23T00:02:11;9.95;;;7.38;;
2362;SDS011;64265;51.664;7.626;2023-03-23T00:04:38;9.02;;;7.80;;
2362;SDS011;64265;51.664;7.626;2023-03-23T00:07:07;9.43;;;7.03;;
2362;SDS011;64265;51.664;7.626;2023-03-23T00:09:34;8.98;;;7.25;;
2362;SDS011;64265;51.664;7.626;2023-03-23T00:12:06;7.82;;;6.93;;
2362;SDS011;64265;51.664;7.626;2023-03-23T00:14:34;8.40;;;7.00;;
2362;SDS011;64265;51.664;7.626;2023-03-23T00:17:08;10.68;;;7.63;;
2362;SDS011;64265;51.664;7.626;2023-03-23T00:19:36;10.45;;;7.43;;
2362;SDS011;64265;51.664;7.626;2023-03-23T00:22:10;11.50;;;7.90;;
2362;SDS011;64265;51.664;7.626;2023-03-23T00:24:38;9.63;;;7.30;;
2362;SDS011;64265;51.664;7.626;2023-03-23T00:27:05;11.90;;;7.80;;
2362;SDS011;64265;51.664;7.626;2023-03-23T00:29:34;9.15;;;7.45;;
2362;SDS011;64265;51.664;7.626;2023-03-23T00:32:01;11.18;;;7.03;;
2362;SDS011;64265;51.664;7.626;2023-03-23T00:34:28;8.15;;;7.30;;
2362;SDS011;64265;51.664;7.626;2023-03-23T00:36:59;8.57;;;6.78;;
2362;SDS011;64265;51.664;7.626;2023-03-23T00:39:26;11.00;;;7.72;;
2362;SDS011;64265;51.664;7.626;2023-03-23T00:41:54;7.53;;;6.70;;
2362;SDS011;64265;51.664;7.626;2023-03-23T00:44:25;9.75;;;7.95;;
2362;SDS011;64265;51.664;7.626;2023-03-23T00:46:54;7.18;;;6.50;;
2362;SDS011;64265;51.664;7.626;2023-03-23T00:49:22;8.25;;;7.00;;
2362;SDS011;64265;51.664;7.626;2023-03-23T00:51:50;10.10;;;7.90;;
2362;SDS011;64265;51.664;7.626;2023-03-23T00:54:18;10.25;;;7.75;;
2362;SDS011;64265;51.664;7.626;2023-03-23T00:56:45;10.25;;;7.72;;
2362;SDS011;64265;51.664;7.626;2023-03-23T00:59:12;10.23;;;6.70;;
2362;SDS011;64265;51.664;7.626;2023-03-23T01:01:39;10.80;;;6.70;;
2362;SDS011;64265;51.664;7.626;2023-03-23T01:04:07;7.65;;;6.38;;
2362;SDS011;64265;51.664;7.626;2023-03-23T01:06:37;7.15;;;6.22;;
2362;SDS011;64265;51.664;7.626;2023-03-23T01:09:07;11.50;;;6.82;;
2362;SDS011;64265;51.664;7.626;2023-03-23T01:11:36;10.82;;;7.25;;
2362;SDS011;64265;51.664;7.626;2023-03-23T01:14:03;11.52;;;7.00;;
2362;SDS011;64265;51.664;7.626;2023-03-23T01:16:30;7.25;;;6.25;;
2362;SDS011;64265;51.664;7.626;2023-03-23T01:18:57;10.38;;;7.03;;
2362;SDS011;64265;51.664;7.626;2023-03-23T01:21:25;6.63;;;5.93;;
2362;SDS011;64265;51.664;7.626;2023-03-23T01:23:52;6.68;;;6.07;;
2362;SDS011;64265;51.664;7.626;2023-03-23T01:26:19;7.68;;;6.88;;
2362;SDS011;64265;51.664;7.626;2023-03-23T01:28:48;9.98;;;6.95;;
2362;SDS011;64265;51.664;7.626;2023-03-23T01:31:16;8.00;;;6.38;;
2362;SDS011;64265;51.664;7.626;2023-03-23T01:33:44;7.70;;;6.50;;
2362;SDS011;64265;51.664;7.626;2023-03-23T01:36:12;7.15;;;6.38;;
2362;SDS011;64265;51.664;7.626;2023-03-23T01:38:42;7.30;;;6.50;;
2362;SDS011;64265;51.664;7.626;2023-03-23T01:41:10;8.43;;;7.20;;
2362;SDS011;64265;51.664;7.626;2023-03-23T01:43:52;9.18;;;6.43;;
2362;SDS011;64265;51.664;7.626;2023-03-23T01:46:20;7.47;;;6.72;;
2362;SDS011;64265;51.664;7.626;2023-03-23T01:48:48;7.22;;;6.38;;
2362;SDS011;64265;51.664;7.626;2023-03-23T01:51:16;8.88;;;6.68;;
2362;SDS011;64265;51.664;7.626;2023-03-23T01:53:47;10.52;;;6.93;;
2362;SDS011;64265;51.664;7.626;2023-03-23T01:56:19;8.65;;;6.20;;
2362;SDS011;64265;51.664;7.626;2023-03-23T01:58:50;7.38;;;6.47;;
2362;SDS011;64265;51.664;7.626;2023-03-23T02:01:17;9.35;;;6.78;;
2362;SDS011;64265;51.664;7.626;2023-03-23T02:03:49;8.95;;;7.15;;
2362;SDS011;64265;51.664;7.626;2023-03-23T02:06:17;6.75;;;5.78;;
2362;SDS011;64265;51.664;7.626;2023-03-23T02:08:44;6.80;;;6.10;;
2362;SDS011;64265;51.664;7.626;2023-03-23T02:11:15;8.43;;;6.13;;
2362;SDS011;64265;51.664;7.626;2023-03-23T02:13:42;8.20;;;6.03;;
2362;SDS011;64265;51.664;7.626;2023-03-23T02:16:11;9.43;;;6.22;;
2362;SDS011;64265;51.664;7.626;2023-03-23T02:18:48;5.97;;;5.47;;
2362;SDS011;64265;51.664;7.626;2023-03-23T02:24:49;9.23;;;5.80;;
2362;SDS011;64265;51.664;7.626;2023-03-23T02:27:26;7.95;;;6.30;;
2362;SDS011;64265;51.664;7.626;2023-03-23T02:30:13;8.38;;;5.50;;
2362;SDS011;64265;51.664;7.626;2023-03-23T02:35:47;7.32;;;5.65;;
2362;SDS011;64265;51.664;7.626;2023-03-23T02:38:19;6.18;;;5.30;;
2362;SDS011;64265;51.664;7.626;2023-03-23T02:40:49;6.97;;;5.72;;
2362;SDS011;64265;51.664;7.626;2023-03-23T02:43:17;7.68;;;6.53;;
2362;SDS011;64265;51.664;7.626;2023-03-23T02:45:47;7.72;;;5.90;;
2362;SDS011;64265;51.664;7.626;2023-03-23T02:48:15;6.20;;;5.25;;
2362;SDS011;64265;51.664;7.626;2023-03-23T02:50:47;5.38;;;4.88;;
2362;SDS011;64265;51.664;7.626;2023-03-23T02:53:18;5.35;;;4.78;;
2362;SDS011;64265;51.664;7.626;2023-03-23T02:55:47;8.13;;;5.57;;
2362;SDS011;64265;51.664;7.626;2023-03-23T02:58:14;6.78;;;5.88;;
2362;SDS011;64265;51.664;7.626;2023-03-23T03:00:41;5.75;;;4.97;;
2362;SDS011;64265;51.664;7.626;2023-03-23T03:03:11;7.03;;;5.32;;
2362;SDS011;64265;51.664;7.626;2023-03-23T03:05:40;6.40;;;5.85;;
2362;SDS011;64265;51.664;7.626;2023-03-23T03:08:18;6.55;;;5.72;;
2362;SDS011;64265;51.664;7.626;2023-03-23T03:10:50;6.57;;;5.68;;
2362;SDS011;64265;51.664;7.626;2023-03-23T03:13:32;6.00;;;5.40;;
2362;SDS011;64265;51.664;7.626;2023-03-23T03:16:08;6.88;;;5.43;;
2362;SDS011;64265;51.664;7.626;2023-03-23T03:18:45;5.70;;;5.10;;
2362;SDS011;64265;51.664;7.626;2023-03-23T03:21:14;5.85;;;5.15;;
2362;SDS011;64265;51.664;7.626;2023-03-23T03:23:46;7.20;;;5.78;;
2362;SDS011;64265;51.664;7.626;2023-03-23T03:26:16;5.13;;;4.63;;
2362;SDS011;64265;51.664;7.626;2023-03-23T03:28:45;8.60;;;4.90;;
2362;SDS011;64265;51.664;7.626;2023-03-23T03:31:15;8.68;;;5.25;;
2362;SDS011;64265;51.664;7.626;2023-03-23T03:33:44;7.53;;;5.50;;
2362;SDS011;64265;51.664;7.626;2023-03-23T03:36:14;5.60;;;5.00;;
2362;SDS011;64265;51.664;7.626;2023-03-23T03:38:42;6.75;;;5.25;;
2362;SDS011;64265;51.664;7.626;2023-03-23T03:41:11;6.55;;;5.63;;
2362;SDS011;64265;51.664;7.626;2023-03-23T03:43:37;9.82;;;5.60;;
2362;SDS011;64265;51.664;7.626;2023-03-23T03:46:04;5.00;;;4.50;;
2362;SDS011;64265;51.664;7.626;2023-03-23T03:48:32;5.78;;;5.05;;
2362;SDS011;64265;51.664;7.626;2023-03-23T03:50:59;4.72;;;4.30;;
2362;SDS011;64265;51.664;7.626;2023-03-23T03:53:26;5.20;;;4.72;;
2362;SDS011;64265;51.664;7.626;2023-03-23T03:55:53;5.20;;;4.38;;
2362;SDS011;64265;51.664;7.626;2023-03-23T03:58:29;6.15;;;5.47;;
2362;SDS011;64265;51.664;7.626;2023-03-23T04:01:01;6.80;;;5.05;;
2362;SDS011;64265;51.664;7.626;2023-03-23T04:03:28;6.90;;;6.20;;
2362;SDS011;64265;51.664;7.626;2023-03-23T04:05:55;5.75;;;5.07;;
2362;SDS011;64265;51.664;7.626;2023-03-23T04:08:24;5.20;;;4.70;;
2362;SDS011;64265;51.664;7.626;2023-03-23T04:10:51;5.60;;;5.10;;
2362;SDS011;64265;51.664;7.626;2023-03-23T04:13:18;5.43;;;4.93;;
2362;SDS011;64265;51.664;7.626;2023-03-23T04:15:47;7.72;;;5.28;;
2362;SDS011;64265;51.664;7.626;2023-03-23T04:18:15;5.40;;;4.90;;
2362;SDS011;64265;51.664;7.626;2023-03-23T04:20:43;5.55;;;5.05;;
2362;SDS011;64265;51.664;7.626;2023-03-23T04:23:12;5.75;;;5.03;;
2362;SDS011;64265;51.664;7.626;2023-03-23T04:25:39;5.28;;;4.63;;
2362;SDS011;64265;51.664;7.626;2023-03-23T04:28:07;5.63;;;5.13;;
2362;SDS011;64265;51.664;7.626;2023-03-23T04:30:35;5.10;;;4.60;;
2362;SDS011;64265;51.664;7.626;2023-03-23T04:33:03;6.43;;;5.10;;
2362;SDS011;64265;51.664;7.626;2023-03-23T04:35:31;6.82;;;4.93;;
2362;SDS011;64265;51.664;7.626;2023-03-23T04:37:59;6.25;;;5.10;;
2362;SDS011;64265;51.664;7.626;2023-03-23T04:40:25;4.60;;;4.20;;
2362;SDS011;64265;51.664;7.626;2023-03-23T04:42:52;5.75;;;5.25;;
2362;SDS011;64265;51.664;7.626;2023-03-23T04:45:22;5.30;;;4.80;;
2362;SDS011;64265;51.664;7.626;2023-03-23T04:47:49;5.50;;;4.78;;
2362;SDS011;64265;51.664;7.626;2023-03-23T04:50:24;6.88;;;5.13;;
2362;SDS011;64265;51.664;7.626;2023-03-23T04:52:55;6.20;;;4.75;;
2362;SDS011;64265;51.664;7.626;2023-03-23T04:55:23;6.85;;;4.85;;
2362;SDS011;64265;51.664;7.626;2023-03-23T04:57:51;5.30;;;4.80;;
2362;SDS011;64265;51.664;7.626;2023-03-23T05:00:18;5.18;;;4.70;;
2362;SDS011;64265;51.664;7.626;2023-03-23T05:02:46;5.40;;;4.90;;
2362;SDS011;64265;51.664;7.626;2023-03-23T05:05:16;4.82;;;4.38;;
2362;SDS011;64265;51.664;7.626;2023-03-23T05:07:45;6.47;;;4.13;;
2362;SDS011;64265;51.664;7.626;2023-03-23T05:10:12;5.25;;;4.45;;
2362;SDS011;64265;51.664;7.626;2023-03-23T05:12:40;5.35;;;4.85;;
2362;SDS011;64265;51.664;7.626;2023-03-23T05:15:07;5.38;;;4.82;;
2362;SDS011;64265;51.664;7.626;2023-03-23T05:17:35;6.55;;;5.25;;
2362;SDS011;64265;51.664;7.626;2023-03-23T05:20:03;5.97;;;5.40;;
2362;SDS011;64265;51.664;7.626;2023-03-23T05:22:33;5.25;;;4.72;;
2362;SDS011;64265;51.664;7.626;2023-03-23T05:25:02;5.38;;;4.90;;
2362;SDS011;64265;51.664;7.626;2023-03-23T05:27:30;5.68;;;4.70;;
2362;SDS011;64265;51.664;7.626;2023-03-23T05:29:57;4.47;;;4.07;;
2362;SDS011;64265;51.664;7.626;2023-03-23T05:32:25;4.85;;;4.43;;
2362;SDS011;64265;51.664;7.626;2023-03-23T05:34:54;4.93;;;4.53;;
2362;SDS011;64265;51.664;7.626;2023-03-23T05:37:21;5.18;;;4.70;;
2362;SDS011;64265;51.664;7.626;2023-03-23T05:39:48;5.35;;;4.57;;
2362;SDS011;64265;51.664;7.626;2023-03-23T05:42:19;5.13;;;4.28;;
2362;SDS011;64265;51.664;7.626;2023-03-23T05:44:46;5.70;;;4.90;;
2362;SDS011;64265;51.664;7.626;2023-03-23T05:47:13;5.78;;;5.13;;
2362;SDS011;64265;51.664;7.626;2023-03-23T05:49:40;4.10;;;3.70;;
2362;SDS011;64265;51.664;7.626;2023-03-23T05:52:07;4.93;;;4.38;;
2362;SDS011;64265;51.664;7.626;2023-03-23T05:54:34;6.60;;;5.68;;
2362;SDS011;64265;51.664;7.626;2023-03-23T05:57:01;4.38;;;3.97;;
2362;SDS011;64265;51.664;7.626;2023-03-23T05:59:29;4.40;;;3.83;;
2362;SDS011;64265;51.664;7.626;2023-03-23T06:01:55;5.00;;;4.50;;
2362;SDS011;64265;51.664;7.626;2023-03-23T06:04:22;4.35;;;3.95;;
2362;SDS011;64265;51.664;7.626;2023-03-23T06:06:49;6.65;;;4.35;;
2362;SDS011;64265;51.664;7.626;2023-03-23T06:09:16;4.28;;;3.90;;
2362;SDS011;64265;51.664;7.626;2023-03-23T06:11:43;4.75;;;4.13;;
2362;SDS011;64265;51.664;7.626;2023-03-23T06:14:10;5.05;;;4.55;;
2362;SDS011;64265;51.664;7.626;2023-03-23T06:16:38;6.57;;;4.57;;
2362;SDS011;64265;51.664;7.626;2023-03-23T06:19:05;4.95;;;4.45;;
2362;SDS011;64265;51.664;7.626;2023-03-23T06:21:32;5.50;;;5.00;;
2362;SDS011;64265;51.664;7.626;2023-03-23T06:23:59;4.43;;;4.03;;
2362;SDS011;64265;51.664;7.626;2023-03-23T06:26:27;4.82;;;4.22;;
2362;SDS011;64265;51.664;7.626;2023-03-23T06:28:56;4.32;;;3.92;;
2362;SDS011;64265;51.664;7.626;2023-03-23T06:31:22;4.20;;;3.90;;
2362;SDS011;64265;51.664;7.626;2023-03-23T06:33:51;4.78;;;4.30;;
2362;SDS011;64265;51.664;7.626;2023-03-23T06:36:18;5.05;;;4.55;;
2362;SDS011;64265;51.664;7.626;2023-03-23T06:38:45;4.00;;;3.70;;
2362;SDS011;64265;51.664;7.626;2023-03-23T06:41:12;4.13;;;3.75;;
2362;SDS011;64265;51.664;7.626;2023-03-23T06:43:39;4.28;;;3.88;;
2362;SDS011;64265;51.664;7.626;2023-03-23T06:46:05;4.32;;;3.92;;
2362;SDS011;64265;51.664;7.626;2023-03-23T06:48:33;4.28;;;3.75;;
2362;SDS011;64265;51.664;7.626;2023-03-23T06:51:01;5.43;;;4.30;;
2362;SDS011;64265;51.664;7.626;2023-03-23T06:53:28;4.30;;;3.90;;
2362;SDS011;64265;51.664;7.626;2023-03-23T06:55:55;3.42;;;2.88;;
2362;SDS011;64265;51.664;7.626;2023-03-23T06:58:22;4.80;;;3.90;;
2362;SDS011;64265;51.664;7.626;2023-03-23T07:00:52;4.93;;;4.13;;
2362;SDS011;64265;51.664;7.626;2023-03-23T07:03:21;5.28;;;4.38;;
2362;SDS011;64265;51.664;7.626;2023-03-23T07:05:48;4.32;;;3.92;;
2362;SDS011;64265;51.664;7.626;2023-03-23T07:08:17;3.88;;;3.58;;
2362;SDS011;64265;51.664;7.626;2023-03-23T07:10:44;4.47;;;4.18;;
2362;SDS011;64265;51.664;7.626;2023-03-23T07:13:10;3.95;;;3.53;;
2362;SDS011;64265;51.664;7.626;2023-03-23T07:15:38;5.93;;;4.25;;
2362;SDS011;64265;51.664;7.626;2023-03-23T07:18:05;4.05;;;3.65;;
2362;SDS011;64265;51.664;7.626;2023-03-23T07:20:31;3.67;;;3.22;;
2362;SDS011;64265;51.664;7.626;2023-03-23T07:22:58;3.35;;;3.05;;
2362;SDS011;64265;51.664;7.626;2023-03-23T07:25:28;3.80;;;3.38;;
2362;SDS011;64265;51.664;7.626;2023-03-23T07:27:55;3.97;;;3.58;;
2362;SDS011;64265;51.664;7.626;2023-03-23T07:30:22;4.70;;;3.78;;
2362;SDS011;64265;51.664;7.626;2023-03-23T07:32:48;4.20;;;3.63;;
2362;SDS011;64265;51.664;7.626;2023-03-23T07:35:15;4.15;;;3.63;;
2362;SDS011;64265;51.664;7.626;2023-03-23T07:37:42;4.00;;;3.60;;
2362;SDS011;64265;51.664;7.626;2023-03-23T07:40:10;3.65;;;3.35;;
2362;SDS011;64265;51.664;7.626;2023-03-23T07:42:42;3.78;;;3.47;;
2362;SDS011;64265;51.664;7.626;2023-03-23T07:45:10;3.65;;;3.35;;
2362;SDS011;64265;51.664;7.626;2023-03-23T07:47:38;3.90;;;3.60;;
2362;SDS011;64265;51.664;7.626;2023-03-23T07:50:05;4.68;;;4.28;;
2362;SDS011;64265;51.664;7.626;2023-03-23T07:52:33;4.35;;;3.97;;
2362;SDS011;64265;51.664;7.626;2023-03-23T07:55:00;3.22;;;2.95;;
2362;SDS011;64265;51.664;7.626;2023-03-23T07:57:28;3.70;;;3.35;;
2362;SDS011;64265;51.664;7.626;2023-03-23T07:59:56;3.65;;;3.13;;
2362;SDS011;64265;51.664;7.626;2023-03-23T08:02:24;4.40;;;3.28;;
2362;SDS011;64265;51.664;7.626;2023-03-23T08:04:52;3.10;;;2.90;;
2362;SDS011;64265;51.664;7.626;2023-03-23T08:07:21;3.85;;;3.50;;
2362;SDS011;64265;51.664;7.626;2023-03-23T08:09:48;4.05;;;3.67;;
2362;SDS011;64265;51.664;7.626;2023-03-23T08:12:15;3.50;;;3.20;;
2362;SDS011;64265;51.664;7.626;2023-03-23T08:14:42;3.38;;;3.03;;
2362;SDS011;64265;51.664;7.626;2023-03-23T08:17:10;3.90;;;3.50;;
2362;SDS011;64265;51.664;7.626;2023-03-23T08:19:36;4.13;;;3.22;;
2362;SDS011;64265;51.664;7.626;2023-03-23T08:22:03;3.70;;;3.28;;
2362;SDS011;64265;51.664;7.626;2023-03-23T08:24:30;3.28;;;2.97;;
2362;SDS011;64265;51.664;7.626;2023-03-23T08:26:57;3.55;;;3.25;;
2362;SDS011;64265;51.664;7.626;2023-03-23T08:29:24;3.33;;;3.03;;
2362;SDS011;64265;51.664;7.626;2023-03-23T08:31:51;3.80;;;2.92;;
2362;SDS011;64265;51.664;7.626;2023-03-23T08:34:19;3.47;;;3.17;;
2362;SDS011;64265;51.664;7.626;2023-03-23T08:36:46;3.27;;;2.97;;
2362;SDS011;64265;51.664;7.626;2023-03-23T08:39:13;3.38;;;3.15;;
2362;SDS011;64265;51.664;7.626;2023-03-23T08:41:41;3.00;;;2.80;;
2362;SDS011;64265;51.664;7.626;2023-03-23T08:44:09;3.53;;;3.13;;
2362;SDS011;64265;51.664;7.626;2023-03-23T08:46:37;2.88;;;2.60;;
2362;SDS011;64265;51.664;7.626;2023-03-23T08:49:04;2.80;;;2.60;;
2362;SDS011;64265;51.664;7.626;2023-03-23T08:51:32;2.80;;;2.60;;
2362;SDS011;64265;51.664;7.626;2023-03-23T08:53:59;3.53;;;2.63;;
2362;SDS011;64265;51.664;7.626;2023-03-23T08:56:26;3.85;;;3.45;;
2362;SDS011;64265;51.664;7.626;2023-03-23T08:58:53;3.35;;;3.00;;
2362;SDS011;64265;51.664;7.626;2023-03-23T09:01:20;5.13;;;2.67;;
2362;SDS011;64265;51.664;7.626;2023-03-23T09:03:46;3.50;;;2.95;;
2362;SDS011;64265;51.664;7.626;2023-03-23T09:06:13;2.90;;;2.70;;
2362;SDS011;64265;51.664;7.626;2023-03-23T09:08:41;2.97;;;2.63;;
2362;SDS011;64265;51.664;7.626;2023-03-23T09:11:09;3.38;;;3.08;;
2362;SDS011;64265;51.664;7.626;2023-03-23T09:13:36;2.47;;;2.28;;
2362;SDS011;64265;51.664;7.626;2023-03-23T09:16:05;2.80;;;2.50;;
2362;SDS011;64265;51.664;7.626;2023-03-23T09:18:33;3.00;;;2.53;;
2362;SDS011;64265;51.664;7.626;2023-03-23T09:21:01;3.92;;;2.85;;
2362;SDS011;64265;51.664;7.626;2023-03-23T09:23:29;9.27;;;2.97;;
2362;SDS011;64265;51.664;7.626;2023-03-23T09:25:58;3.70;;;2.20;;
2362;SDS011;64265;51.664;7.626;2023-03-23T09:28:26;3.83;;;2.45;;
2362;SDS011;64265;51.664;7.626;2023-03-23T09:30:54;3.22;;;2.92;;
2362;SDS011;64265;51.664;7.626;2023-03-23T09:33:22;3.17;;;2.72;;
2362;SDS011;64265;51.664;7.626;2023-03-23T09:35:49;4.28;;;2.88;;
2362;SDS011;64265;51.664;7.626;2023-03-23T09:38:16;3.27;;;2.97;;
2362;SDS011;64265;51.664;7.626;2023-03-23T09:40:45;2.70;;;2.47;;
2362;SDS011;64265;51.664;7.626;2023-03-23T09:43:25;2.38;;;2.17;;
2362;SDS011;64265;51.664;7.626;2023-03-23T09:46:08;2.78;;;2.58;;
2362;SDS011;64265;51.664;7.626;2023-03-23T09:48:56;2.37;;;2.17;;
2362;SDS011;64265;51.664;7.626;2023-03-23T09:51:30;3.33;;;2.30;;
2362;SDS011;64265;51.664;7.626;2023-03-23T09:54:04;2.30;;;2.10;;
2362;SDS011;64265;51.664;7.626;2023-03-23T09:56:43;2.90;;;2.30;;
2362;SDS011;64265;51.664;7.626;2023-03-23T09:59:14;2.10;;;1.90;;
2362;SDS011;64265;51.664;7.626;2023-03-23T10:01:45;3.45;;;2.58;;
2362;SDS011;64265;51.664;7.626;2023-03-23T10:04:15;2.63;;;2.38;;
2362;SDS011;64265;51.664;7.626;2023-03-23T10:06:50;2.72;;;2.10;;
2362;SDS011;64265;51.664;7.626;2023-03-23T10:09:18;2.40;;;2.20;;
2362;SDS011;64265;51.664;7.626;2023-03-23T10:11:49;3.72;;;2.53;;
2362;SDS011;64265;51.664;7.626;2023-03-23T10:14:28;3.20;;;2.33;;
2362;SDS011;64265;51.664;7.626;2023-03-23T10:17:03;2.80;;;2.60;;
2362;SDS011;64265;51.664;7.626;2023-03-23T10:19:40;3.30;;;2.55;;
2362;SDS011;64265;51.664;7.626;2023-03-23T10:22:12;2.72;;;2.17;;
2362;SDS011;64265;51.664;7.626;2023-03-23T10:24:46;4.40;;;3.10;;
2362;SDS011;64265;51.664;7.626;2023-03-23T10:27:18;2.40;;;1.80;;
2362;SDS011;64265;51.664;7.626;2023-03-23T10:29:52;3.15;;;2.85;;
2362;SDS011;64265;51.664;7.626;2023-03-23T10:32:34;2.93;;;2.50;;
2362;SDS011;64265;51.664;7.626;2023-03-23T10:35:06;2.60;;;2.20;;
2362;SDS011;64265;51.664;7.626;2023-03-23T10:37:38;2.42;;;2.22;;
2362;SDS011;64265;51.664;7.626;2023-03-23T10:40:12;4.90;;;2.10;;
2362;SDS011;64265;51.664;7.626;2023-03-23T10:42:41;5.05;;;2.45;;
2362;SDS011;64265;51.664;7.626;2023-03-23T10:45:15;5.23;;;2.00;;
2362;SDS011;64265;51.664;7.626;2023-03-23T10:47:46;2.70;;;2.50;;
2362;SDS011;64265;51.664;7.626;2023-03-23T10:50:18;3.00;;;1.90;;
2362;SDS011;64265;51.664;7.626;2023-03-23T10:52:50;4.10;;;2.10;;
2362;SDS011;64265;51.664;7.626;2023-03-23T10:55:18;2.60;;;1.97;;
2362;SDS011;64265;51.664;7.626;2023-03-23T10:57:58;3.87;;;2.10;;
2362;SDS011;64265;51.664;7.626;2023-03-23T11:00:28;2.30;;;1.50;;
2362;SDS011;64265;51.664;7.626;2023-03-23T11:02:59;2.15;;;1.95;;
2362;SDS011;64265;51.664;7.626;2023-03-23T11:05:32;2.77;;;2.10;;
2362;SDS011;64265;51.664;7.626;2023-03-23T11:08:02;2.10;;;1.90;;
2362;SDS011;64265;51.664;7.626;2023-03-23T11:10:34;2.50;;;2.30;;
2362;SDS011;64265;51.664;7.626;2023-03-23T11:13:03;2.10;;;1.63;;
2362;SDS011;64265;51.664;7.626;2023-03-23T11:15:36;1.83;;;1.70;;
2362;SDS011;64265;51.664;7.626;2023-03-23T11:18:06;1.63;;;1.53;;
2362;SDS011;64265;51.664;7.626;2023-03-23T11:20:37;1.83;;;1.63;;
2362;SDS011;64265;51.664;7.626;2023-03-23T11:23:18;3.63;;;2.40;;
2362;SDS011;64265;51.664;7.626;2023-03-23T11:25:54;2.30;;;2.10;;
2362;SDS011;64265;51.664;7.626;2023-03-23T11:28:25;1.73;;;1.47;;
2362;SDS011;64265;51.664;7.626;2023-03-23T11:30:58;1.73;;;1.50;;
2362;SDS011;64265;51.664;7.626;2023-03-23T11:33:30;2.87;;;1.90;;
2362;SDS011;64265;51.664;7.626;2023-03-23T11:36:02;2.87;;;1.80;;
2362;SDS011;64265;51.664;7.626;2023-03-23T11:38:29;3.20;;;2.00;;
2362;SDS011;64265;51.664;7.626;2023-03-23T11:40:56;4.00;;;2.90;;
2362;SDS011;64265;51.664;7.626;2023-03-23T11:43:25;2.00;;;1.33;;
2362;SDS011;64265;51.664;7.626;2023-03-23T11:48:42;1.33;;;1.20;;
2362;SDS011;64265;51.664;7.626;2023-03-23T11:51:16;3.63;;;1.60;;
2362;SDS011;64265;51.664;7.626;2023-03-23T11:53:50;2.33;;;1.90;;
2362;SDS011;64265;51.664;7.626;2023-03-23T11:56:24;2.30;;;1.60;;
2362;SDS011;64265;51.664;7.626;2023-03-23T11:58:53;2.07;;;1.80;;
2362;SDS011;64265;51.664;7.626;2023-03-23T12:01:33;4.03;;;1.60;;
2362;SDS011;64265;51.664;7.626;2023-03-23T12:07:11;2.23;;;1.60;;
2362;SDS011;64265;51.664;7.626;2023-03-23T12:09:48;1.93;;;1.67;;
2362;SDS011;64265;51.664;7.626;2023-03-23T12:12:22;1.90;;;1.80;;
2362;SDS011;64265;51.664;7.626;2023-03-23T12:15:00;1.93;;;1.83;;
2362;SDS011;64265;51.664;7.626;2023-03-23T12:17:37;2.20;;;1.37;;
2362;SDS011;64265;51.664;7.626;2023-03-23T12:20:16;2.23;;;1.60;;
2362;SDS011;64265;51.664;7.626;2023-03-23T12:22:53;1.50;;;1.40;;
2362;SDS011;64265;51.664;7.626;2023-03-23T12:25:34;2.33;;;1.83;;
2362;SDS011;64265;51.664;7.626;2023-03-23T12:28:14;2.30;;;2.10;;
2362;SDS011;64265;51.664;7.626;2023-03-23T12:30:49;1.63;;;1.47;;
2362;SDS011;64265;51.664;7.626;2023-03-23T12:33:25;1.57;;;1.47;;
2362;SDS011;64265;51.664;7.626;2023-03-23T12:36:02;2.67;;;1.67;;
2362;SDS011;64265;51.664;7.626;2023-03-23T12:38:48;2.00;;;1.57;;
2362;SDS011;64265;51.664;7.626;2023-03-23T12:41:33;1.20;;;1.10;;
2362;SDS011;64265;51.664;7.626;2023-03-23T12:44:05;1.73;;;1.30;;
2362;SDS011;64265;51.664;7.626;2023-03-23T12:49:33;1.70;;;1.20;;
2362;SDS011;64265;51.664;7.626;2023-03-23T12:52:04;1.80;;;1.37;;
2362;SDS011;64265;51.664;7.626;2023-03-23T12:54:39;1.40;;;1.30;;
2362;SDS011;64265;51.664;7.626;2023-03-23T12:57:14;2.07;;;1.90;;
2362;SDS011;64265;51.664;7.626;2023-03-23T12:59:46;1.50;;;1.40;;
2362;SDS011;64265;51.664;7.626;2023-03-23T13:02:19;1.47;;;1.37;;
2362;SDS011;64265;51.664;7.626;2023-03-23T13:04:51;1.83;;;1.57;;
2362;SDS011;64265;51.664;7.626;2023-03-23T13:07:23;2.27;;;1.37;;
2362;SDS011;64265;51.664;7.626;2023-03-23T13:09:55;2.90;;;1.80;;
2362;SDS011;64265;51.664;7.626;2023-03-23T13:12:29;6.40;;;1.53;;
2362;SDS011;64265;51.664;7.626;2023-03-23T13:14:59;2.80;;;1.40;;
2362;SDS011;64265;51.664;7.626;2023-03-23T13:17:36;2.40;;;1.50;;
2362;SDS011;64265;51.664;7.626;2023-03-23T13:20:27;2.47;;;1.57;;
2362;SDS011;64265;51.664;7.626;2023-03-23T13:23:08;4.23;;;1.20;;
2362;SDS011;64265;51.664;7.626;2023-03-23T13:28:43;3.00;;;1.50;;
2362;SDS011;64265;51.664;7.626;2023-03-23T13:31:16;1.50;;;1.37;;
2362;SDS011;64265;51.664;7.626;2023-03-23T13:33:50;1.40;;;1.20;;
2362;SDS011;64265;51.664;7.626;2023-03-23T13:36:24;2.93;;;1.43;;
2362;SDS011;64265;51.664;7.626;2023-03-23T13:38:57;1.40;;;1.30;;
2362;SDS011;64265;51.664;7.626;2023-03-23T13:41:25;2.40;;;1.33;;
2362;SDS011;64265;51.664;7.626;2023-03-23T13:44:04;1.67;;;1.10;;
2362;SDS011;64265;51.664;7.626;2023-03-23T13:46:40;1.60;;;1.40;;
2362;SDS011;64265;51.664;7.626;2023-03-23T13:49:16;1.43;;;1.30;;
2362;SDS011;64265;51.664;7.626;2023-03-23T13:52:00;3.33;;;1.50;;
2362;SDS011;64265;51.664;7.626;2023-03-23T13:54:41;1.83;;;1.50;;
2362;SDS011;64265;51.664;7.626;2023-03-23T13:57:32;1.77;;;1.50;;
2362;SDS011;64265;51.664;7.626;2023-03-23T14:00:09;1.77;;;1.67;;
2362;SDS011;64265;51.664;7.626;2023-03-23T14:02:52;2.57;;;1.60;;
2362;SDS011;64265;51.664;7.626;2023-03-23T14:05:30;1.80;;;1.23;;
2362;SDS011;64265;51.664;7.626;2023-03-23T14:08:02;1.70;;;1.20;;
2362;SDS011;64265;51.664;7.626;2023-03-23T14:10:36;1.87;;;1.30;;
2362;SDS011;64265;51.664;7.626;2023-03-23T14:13:06;2.70;;;1.37;;
2362;SDS011;64265;51.664;7.626;2023-03-23T14:15:41;1.57;;;1.30;;
2362;SDS011;64265;51.664;7.626;2023-03-23T14:18:13;2.07;;;1.40;;
2362;SDS011;64265;51.664;7.626;2023-03-23T14:20:41;1.60;;;1.33;;
2362;SDS011;64265;51.664;7.626;2023-03-23T14:23:16;2.40;;;1.33;;
2362;SDS011;64265;51.664;7.626;2023-03-23T14:25:44;1.20;;;1.00;;
2362;SDS011;64265;51.664;7.626;2023-03-23T14:28:21;1.80;;;1.20;;
2362;SDS011;64265;51.664;7.626;2023-03-23T14:30:48;3.10;;;1.50;;
2362;SDS011;64265;51.664;7.626;2023-03-23T14:33:19;1.50;;;1.17;;
2362;SDS011;64265;51.664;7.626;2023-03-23T14:35:46;1.43;;;1.23;;
2362;SDS011;64265;51.664;7.626;2023-03-23T14:38:15;1.80;;;1.30;;
2362;SDS011;64265;51.664;7.626;2023-03-23T14:40:45;2.17;;;1.30;;
2362;SDS011;64265;51.664;7.626;2023-03-23T14:43:13;1.30;;;1.20;;
2362;SDS011;64265;51.664;7.626;2023-03-23T14:45:42;1.60;;;1.00;;
2362;SDS011;64265;51.664;7.626;2023-03-23T14:48:10;4.20;;;1.33;;
2362;SDS011;64265;51.664;7.626;2023-03-23T14:50:42;1.60;;;1.00;;
2362;SDS011;64265;51.664;7.626;2023-03-23T14:53:18;1.47;;;1.27;;
2362;SDS011;64265;51.664;7.626;2023-03-23T14:55:47;2.37;;;1.20;;
2362;SDS011;64265;51.664;7.626;2023-03-23T14:58:16;2.87;;;1.53;;
2362;SDS011;64265;51.664;7.626;2023-03-23T15:00:45;1.50;;;1.20;;
2362;SDS011;64265;51.664;7.626;2023-03-23T15:03:16;2.07;;;1.07;;
2362;SDS011;64265;51.664;7.626;2023-03-23T15:05:44;1.90;;;1.40;;
2362;SDS011;64265;51.664;7.626;2023-03-23T15:08:15;2.27;;;0.90;;
2362;SDS011;64265;51.664;7.626;2023-03-23T15:10:51;1.30;;;1.10;;
2362;SDS011;64265;51.664;7.626;2023-03-23T15:13:20;1.47;;;1.30;;
2362;SDS011;64265;51.664;7.626;2023-03-23T15:15:46;1.40;;;1.17;;
2362;SDS011;64265;51.664;7.626;2023-03-23T15:21:07;1.37;;;1.17;;
2362;SDS011;64265;51.664;7.626;2023-03-23T15:23:41;2.13;;;1.40;;
2362;SDS011;64265;51.664;7.626;2023-03-23T15:26:17;1.30;;;1.10;;
2362;SDS011;64265;51.664;7.626;2023-03-23T15:28:50;2.23;;;1.17;;
2362;SDS011;64265;51.664;7.626;2023-03-23T15:31:26;2.50;;;1.63;;
2362;SDS011;64265;51.664;7.626;2023-03-23T15:33:55;2.23;;;1.53;;
2362;SDS011;64265;51.664;7.626;2023-03-23T15:36:25;1.30;;;0.97;;
2362;SDS011;64265;51.664;7.626;2023-03-23T15:38:58;2.73;;;1.23;;
2362;SDS011;64265;51.664;7.626;2023-03-23T15:41:26;1.87;;;1.23;;